Time;durP1;ratioP1;P1;durP2;ratioP2;P2;SDS_P1;SDS_P2;PMS_P1;PMS_P2;Temp;Humidity;BMP_temperature;BMP_pressure;BME280_temperature;BME280_humidity;BME280_pressure;Samples;Min_cycle;Max_cycle;Signal;HPM_P1;HPM_P2
2021/12/06 00:01:47;;;;;;;48.45;21.38;;;;;;;1.81;100.00;99674.28;5056490;28;20061;-84
2021/12/06 00:04:19;;;;;;;48.80;20.92;;;;;;;1.82;100.00;99676.03;5039245;28;20017;-84
2021/12/06 00:06:53;;;;;;;47.78;21.15;;;;;;;1.82;100.00;99676.03;5039063;28;20433;-84
2021/12/06 00:09:20;;;;;;;57.47;22.55;;;;;;;1.80;100.00;99682.19;5038358;28;20049;-83
2021/12/06 00:11:46;;;;;;;55.55;22.95;;;;;;;1.78;100.00;99682.19;5038861;28;20037;-83
2021/12/06 00:14:12;;;;;;;51.35;22.58;;;;;;;1.79;100.00;99689.22;5038610;28;20071;-84
2021/12/06 00:16:37;;;;;;;48.83;21.95;;;;;;;1.79;100.00;99694.47;5039092;28;20029;-85
2021/12/06 00:19:03;;;;;;;51.78;21.83;;;;;;;1.81;100.00;99690.06;5039355;28;20398;-84
2021/12/06 00:21:29;;;;;;;52.38;23.52;;;;;;;1.78;100.00;99688.31;5038512;28;20082;-84
2021/12/06 00:23:55;;;;;;;53.05;21.67;;;;;;;1.77;100.00;99688.34;5038910;28;20021;-83
2021/12/06 00:26:20;;;;;;;54.17;23.85;;;;;;;1.76;100.00;99686.56;5039578;28;20415;-84
2021/12/06 00:28:46;;;;;;;52.22;22.70;;;;;;;1.72;100.00;99679.59;5056511;28;20029;-84
2021/12/06 00:31:13;;;;;;;50.80;23.17;;;;;;;1.73;100.00;99681.31;5037596;28;20021;-84
2021/12/06 00:33:39;;;;;;;51.72;21.67;;;;;;;1.73;100.00;99694.47;5054938;28;20099;-84
2021/12/06 00:36:15;;;;;;;57.35;24.98;;;;;;;1.74;100.00;99689.22;5037759;28;20020;-84
2021/12/06 00:38:41;;;;;;;61.58;24.27;;;;;;;1.78;100.00;99700.59;5038587;28;20028;-84
2021/12/06 00:41:06;;;;;;;59.25;24.45;;;;;;;1.81;100.00;99700.59;5056518;28;20478;-84
2021/12/06 00:43:32;;;;;;;55.28;24.77;;;;;;;1.80;100.00;99698.88;5038182;28;20025;-84
2021/12/06 00:45:57;;;;;;;56.75;23.52;;;;;;;1.82;100.00;99701.50;5038782;28;20021;-85
2021/12/06 00:48:22;;;;;;;65.15;25.13;;;;;;;1.79;100.00;99702.38;5038475;28;20034;-84
2021/12/06 00:50:48;;;;;;;65.55;26.75;;;;;;;1.81;100.00;99710.25;5038141;28;20497;-84
2021/12/06 00:53:13;;;;;;;63.35;23.55;;;;;;;1.83;100.00;99712.00;5040137;28;20079;-84
2021/12/06 00:55:39;;;;;;;62.58;25.00;;;;;;;1.85;100.00;99717.28;5038083;28;20390;-83
2021/12/06 00:58:05;;;;;;;64.13;25.05;;;;;;;1.87;100.00;99718.16;5038659;28;20386;-84
2021/12/06 01:00:36;;;;;;;56.17;24.25;;;;;;;1.88;100.00;99723.41;5056752;28;20032;-84
2021/12/06 01:03:05;;;;;;;60.08;24.02;;;;;;;1.87;100.00;99724.28;5037727;28;20021;-85
2021/12/06 01:05:30;;;;;;;55.30;23.70;;;;;;;1.85;100.00;99733.97;5038368;28;20121;-84
2021/12/06 01:07:56;;;;;;;60.63;23.95;;;;;;;1.91;100.00;99737.47;5036990;28;20544;-84
2021/12/06 01:10:27;;;;;;;62.70;23.52;;;;;;;1.91;100.00;99737.47;5036549;28;20021;-84
2021/12/06 01:12:53;;;;;;;65.85;24.17;;;;;;;1.91;100.00;99748.84;5036401;28;20024;-84
2021/12/06 01:15:18;;;;;;;61.30;22.42;;;;;;;1.93;100.00;99743.59;5036932;28;20021;-84
2021/12/06 01:17:45;;;;;;;66.82;24.38;;;;;;;1.95;100.00;99754.97;5036483;28;20032;-85
2021/12/06 01:20:15;;;;;;;63.92;24.55;;;;;;;1.95;100.00;99754.97;5036611;28;20444;-85
2021/12/06 01:22:49;;;;;;;67.63;24.50;;;;;;;1.92;100.00;99755.00;5036792;28;20021;-85
2021/12/06 01:25:42;;;;;;;58.08;23.27;;;;;;;1.93;100.00;99751.47;5037121;28;20432;-84
2021/12/06 01:28:31;;;;;;;54.17;22.55;;;;;;;1.92;100.00;99750.59;5054317;28;20029;-84
2021/12/06 01:41:28;;;;;;;59.00;23.13;;;;;;;1.95;100.00;99765.53;5056136;28;19923;-84
2021/12/06 01:44:13;;;;;;;59.70;22.95;;;;;;;1.93;100.00;99773.44;5037342;28;20021;-84
2021/12/06 01:46:48;;;;;;;59.10;22.95;;;;;;;1.93;100.00;99772.56;5038021;28;20033;-84
2021/12/06 01:49:15;;;;;;;62.50;23.20;;;;;;;1.94;100.00;99769.91;5036624;28;20029;-84
2021/12/06 01:51:42;;;;;;;58.78;22.75;;;;;;;1.93;100.00;99773.44;5035889;28;20021;-84
2021/12/06 01:54:09;;;;;;;63.47;24.27;;;;;;;1.94;100.00;99774.28;5036845;28;20031;-84
2021/12/06 01:56:34;;;;;;;69.55;24.60;;;;;;;1.95;100.00;99776.94;5037026;28;20115;-84
2021/12/06 01:59:00;;;;;;;61.60;23.27;;;;;;;1.99;100.00;99775.16;5036526;28;20024;-84
2021/12/06 02:01:25;;;;;;;66.45;24.48;;;;;;;1.99;100.00;99783.06;5037631;28;20029;-84
2021/12/06 02:03:51;;;;;;;67.28;23.73;;;;;;;1.98;100.00;99786.59;5036917;28;20107;-84
2021/12/06 02:06:16;;;;;;;59.08;22.38;;;;;;;1.95;100.00;99789.22;5037563;28;20393;-84
2021/12/06 02:08:42;;;;;;;58.75;22.85;;;;;;;2.00;100.00;99784.81;5037604;28;20464;-84
2021/12/06 02:11:08;;;;;;;70.93;23.75;;;;;;;1.97;100.00;99787.44;5037569;28;20043;-83
2021/12/06 02:13:50;;;;;;;60.65;20.90;;;;;;;1.94;100.00;99790.97;5039036;28;20021;-84
2021/12/06 02:16:19;;;;;;;65.78;23.05;;;;;;;1.97;100.00;99795.34;5043308;28;20123;-85
2021/12/06 02:18:50;;;;;;;60.83;22.27;;;;;;;1.94;100.00;99797.97;5041934;28;20025;-85
2021/12/06 02:21:32;;;;;;;62.08;21.70;;;;;;;1.93;100.00;99793.63;5041341;28;20020;-84
2021/12/06 02:24:00;;;;;;;61.50;21.73;;;;;;;1.92;100.00;99792.75;5040715;28;20090;-85
2021/12/06 02:26:26;;;;;;;61.85;22.08;;;;;;;1.89;100.00;99787.47;5057229;28;20028;-84
2021/12/06 02:28:52;;;;;;;69.07;20.65;;;;;;;1.89;100.00;99785.72;5039827;28;20066;-83
2021/12/06 02:31:20;;;;;;;63.47;21.83;;;;;;;1.91;100.00;99790.97;5040246;28;20115;-84
2021/12/06 02:33:48;;;;;;;64.68;22.35;;;;;;;1.88;100.00;99786.59;5057726;28;20033;-84
2021/12/06 02:36:15;;;;;;;70.38;22.83;;;;;;;1.88;100.00;99783.94;5040886;28;20132;-84
2021/12/06 02:38:41;;;;;;;68.32;23.50;;;;;;;1.88;100.00;99801.53;5041349;28;20025;-84
2021/12/06 02:41:08;;;;;;;63.88;22.88;;;;;;;1.88;100.00;99796.28;5040325;28;20060;-84
2021/12/06 02:43:34;;;;;;;73.65;23.98;;;;;;;1.88;100.00;99802.38;5040352;28;20048;-84
2021/12/06 02:46:00;;;;;;;73.22;24.08;;;;;;;1.87;100.00;99805.91;5058826;28;20021;-84
2021/12/06 02:48:25;;;;;;;71.60;23.05;;;;;;;1.88;100.00;99807.66;5040881;28;20036;-84
2021/12/06 02:50:54;;;;;;;68.18;22.83;;;;;;;1.88;100.00;99805.00;5040935;28;20024;-84
2021/12/06 02:53:22;;;;;;;64.45;22.85;;;;;;;1.87;100.00;99811.19;5042997;28;20108;-84
2021/12/06 02:55:54;;;;;;;69.10;22.83;;;;;;;1.85;100.00;99807.69;5044545;28;20021;-85
2021/12/06 02:59:12;;;;;;;62.85;22.70;;;;;;;1.85;100.00;99810.31;5044435;28;20426;-86
2021/12/06 03:01:27;;;;;;;60.85;21.92;;;;;;;1.83;100.00;99809.41;5059550;28;20082;-85
2021/12/06 03:03:53;;;;;;;61.92;21.73;;;;;;;1.81;100.00;99811.19;5044077;28;20394;-85
2021/12/06 03:06:18;;;;;;;65.00;23.20;;;;;;;1.76;100.00;99808.56;5045044;28;20021;-86
2021/12/06 03:09:06;;;;;;;65.40;23.73;;;;;;;1.80;100.00;99812.06;5044041;28;20092;-84
2021/12/06 03:11:43;;;;;;;58.92;22.05;;;;;;;1.76;100.00;99805.03;5043622;28;20025;-85
2021/12/06 03:14:28;;;;;;;56.90;22.42;;;;;;;1.78;100.00;99816.44;5043204;28;20031;-86
2021/12/06 03:16:57;;;;;;;60.60;21.98;;;;;;;1.75;100.00;99817.31;5026325;28;20032;-83
2021/12/06 03:19:23;;;;;;;66.30;22.08;;;;;;;1.77;100.00;99819.97;5041326;28;20531;-84
2021/12/06 03:21:49;;;;;;;56.50;20.20;;;;;;;1.72;100.00;99824.38;5041268;28;20025;-85
2021/12/06 03:24:15;;;;;;;55.03;20.70;;;;;;;1.74;100.00;99825.22;5056515;28;20017;-85
2021/12/06 03:26:41;;;;;;;58.58;21.50;;;;;;;1.64;100.00;99825.25;5039241;28;20028;-86
2021/12/06 03:29:07;;;;;;;59.67;20.45;;;;;;;1.61;100.00;99829.63;5040449;28;20090;-86
2021/12/06 03:31:33;;;;;;;53.70;20.48;;;;;;;1.62;100.00;99831.41;5042339;28;20420;-86
2021/12/06 03:33:59;;;;;;;59.85;20.75;;;;;;;1.59;100.00;99826.13;5043945;28;20017;-84
2021/12/06 03:36:28;;;;;;;59.00;21.63;;;;;;;1.59;100.00;99834.03;5064276;28;20108;-87
2021/12/06 03:38:55;;;;;;;57.05;21.50;;;;;;;1.59;100.00;99837.53;5040151;28;20075;-86
2021/12/06 03:41:22;;;;;;;49.80;19.88;;;;;;;1.55;100.00;99827.88;5041311;28;20054;-83
2021/12/06 03:43:48;;;;;;;55.40;20.35;;;;;;;1.54;100.00;99832.28;5038111;28;20040;-86
2021/12/06 03:46:16;;;;;;;56.35;20.02;;;;;;;1.53;100.00;99833.16;5039956;28;20033;-87
2021/12/06 03:48:42;;;;;;;56.95;20.17;;;;;;;1.52;100.00;99831.38;5041888;28;20389;-85
2021/12/06 03:51:07;;;;;;;54.53;20.27;;;;;;;1.49;100.00;99841.94;5041824;28;20112;-86
2021/12/06 03:53:36;;;;;;;56.15;19.75;;;;;;;1.48;100.00;99839.28;5037812;28;20053;-86
2021/12/06 03:56:02;;;;;;;50.78;18.98;;;;;;;1.45;100.00;99859.47;5037713;28;20071;-87
2021/12/06 03:58:28;;;;;;;57.38;20.23;;;;;;;1.46;100.00;99865.59;5038695;28;20036;-85
2021/12/06 04:00:54;;;;;;;57.03;20.10;;;;;;;1.49;100.00;99857.72;5037833;28;20017;-86
2021/12/06 04:03:22;;;;;;;57.45;19.02;;;;;;;1.47;100.00;99869.13;5038535;28;20082;-86
2021/12/06 04:05:47;;;;;;;59.28;19.15;;;;;;;1.37;100.00;99869.09;5038970;28;20489;-85
2021/12/06 04:08:13;;;;;;;53.08;17.77;;;;;;;1.42;100.00;99871.72;5039842;28;20043;-86
2021/12/06 04:10:39;;;;;;;54.20;18.17;;;;;;;1.44;100.00;99870.84;5039556;28;20032;-87
2021/12/06 04:13:05;;;;;;;48.80;17.85;;;;;;;1.44;100.00;99875.25;5037692;28;20075;-86
2021/12/06 04:15:31;;;;;;;52.25;18.52;;;;;;;1.41;100.00;99870.88;5055354;28;20024;-86
2021/12/06 04:18:00;;;;;;;54.38;19.40;;;;;;;1.42;100.00;99875.22;5037635;28;20397;-84
2021/12/06 04:20:26;;;;;;;50.85;17.95;;;;;;;1.38;100.00;99870.84;5037944;28;20024;-85
2021/12/06 04:22:55;;;;;;;47.50;18.90;;;;;;;1.44;100.00;99876.09;5056488;28;20394;-85
2021/12/06 04:25:21;;;;;;;44.38;17.75;;;;;;;1.42;100.00;99880.50;5038330;28;20021;-85
2021/12/06 04:27:59;;;;;;;46.85;18.45;;;;;;;1.33;100.00;99894.53;5055160;28;20478;-86
2021/12/06 04:30:25;;;;;;;49.25;18.00;;;;;;;1.31;100.00;99891.03;5036894;28;20111;-86
2021/12/06 04:32:53;;;;;;;49.38;17.88;;;;;;;1.29;100.00;99891.91;5055437;28;20028;-85
2021/12/06 04:35:20;;;;;;;46.38;16.95;;;;;;;1.31;100.00;99895.41;5039706;28;20024;-84
2021/12/06 04:37:45;;;;;;;42.05;17.38;;;;;;;1.27;100.00;99898.88;5040161;28;20066;-86
2021/12/06 04:40:12;;;;;;;45.53;17.05;;;;;;;1.30;100.00;99893.63;5040606;28;20507;-87
2021/12/06 04:42:38;;;;;;;48.92;17.33;;;;;;;1.26;100.00;99902.41;5041386;28;20476;-87
2021/12/06 04:45:07;;;;;;;44.65;16.85;;;;;;;1.25;100.00;99900.63;5040360;28;20108;-85
2021/12/06 04:47:33;;;;;;;49.47;17.30;;;;;;;1.28;100.00;99905.91;5038586;28;20111;-86
2021/12/06 04:49:59;;;;;;;45.63;17.75;;;;;;;1.29;100.00;99907.69;5056400;28;20021;-86
2021/12/06 04:52:25;;;;;;;48.50;17.50;;;;;;;1.26;100.00;99908.56;5036984;28;20037;-86
2021/12/06 04:54:56;;;;;;;49.90;16.77;;;;;;;1.28;100.00;99908.53;5037548;28;20025;-86
2021/12/06 04:57:26;;;;;;;44.22;16.23;;;;;;;1.26;100.00;99918.19;5037153;28;20048;-86
2021/12/06 05:00:34;;;;;;;51.40;17.95;;;;;;;1.20;100.00;99919.94;5037296;28;20103;-87
2021/12/06 05:03:00;;;;;;;48.67;17.70;;;;;;;1.24;100.00;99912.06;5028271;28;20063;-86
2021/12/06 05:05:44;;;;;;;46.67;16.00;;;;;;;1.26;100.00;99921.72;5037277;28;20025;-86
2021/12/06 05:08:15;;;;;;;47.17;17.00;;;;;;;1.25;100.00;99927.84;5037584;28;20032;-86
2021/12/06 05:10:41;;;;;;;45.97;16.92;;;;;;;1.21;100.00;99926.94;5037334;28;20622;-86
2021/12/06 05:13:07;;;;;;;45.65;16.92;;;;;;;1.20;100.00;99922.56;5038957;28;20493;-86
2021/12/06 05:15:36;;;;;;;39.33;16.35;;;;;;;1.22;100.00;99928.69;5039054;28;20032;-88
2021/12/06 05:18:02;;;;;;;42.90;16.50;;;;;;;1.27;100.00;99930.47;5048169;28;20025;-87
2021/12/06 05:20:27;;;;;;;43.53;16.30;;;;;;;1.25;100.00;99938.34;5036510;28;20074;-86
2021/12/06 05:22:54;;;;;;;37.55;15.20;;;;;;;1.25;100.00;99937.47;5054626;28;20020;-88
2021/12/06 05:25:23;;;;;;;42.13;15.77;;;;;;;1.22;100.00;99935.72;5036565;28;20021;-88
2021/12/06 05:27:48;;;;;;;40.58;15.52;;;;;;;1.23;100.00;99934.84;5039056;28;20417;-86
2021/12/06 05:30:16;;;;;;;40.42;16.02;;;;;;;1.27;100.00;99944.50;5054555;28;20021;-85
2021/12/06 05:32:42;;;;;;;46.30;17.98;;;;;;;1.26;100.00;99942.75;5036421;28;20017;-85
2021/12/06 05:35:09;;;;;;;40.75;17.35;;;;;;;1.30;100.00;99943.63;5054493;28;20029;-86
2021/12/06 05:37:39;;;;;;;43.92;17.02;;;;;;;1.28;100.00;99948.00;5054713;28;20441;-86
2021/12/06 05:40:07;;;;;;;49.72;17.08;;;;;;;1.25;100.00;99953.25;5032850;28;20391;-86
2021/12/06 05:42:33;;;;;;;42.13;18.25;;;;;;;1.20;100.00;99956.75;5054250;28;20029;-87
2021/12/06 05:44:58;;;;;;;42.67;16.85;;;;;;;1.21;100.00;99961.13;5054520;28;20099;-86
2021/12/06 05:47:23;;;;;;;44.08;17.52;;;;;;;1.21;100.00;99963.75;5036380;28;20029;-86
2021/12/06 05:49:49;;;;;;;41.65;16.10;;;;;;;1.10;100.00;99973.38;5036090;28;20108;-85
2021/12/06 05:52:20;;;;;;;43.15;15.82;;;;;;;1.20;100.00;99971.66;5054706;28;20048;-86
2021/12/06 05:55:06;;;;;;;39.42;15.98;;;;;;;1.15;100.00;99974.28;5037149;28;20025;-85
2021/12/06 05:57:41;;;;;;;39.78;16.95;;;;;;;1.14;100.00;99977.75;5037031;28;20037;-85
2021/12/06 06:00:11;;;;;;;38.67;16.95;;;;;;;1.18;100.00;99979.56;5054474;28;20382;-86
2021/12/06 06:02:36;;;;;;;42.90;16.77;;;;;;;1.14;100.00;99984.78;5037133;28;20048;-86
2021/12/06 06:05:02;;;;;;;40.60;16.42;;;;;;;1.11;100.00;99985.63;5054955;28;20021;-83
2021/12/06 06:07:28;;;;;;;45.00;17.00;;;;;;;1.14;100.00;99982.13;5053691;28;20029;-87
2021/12/06 06:09:53;;;;;;;40.08;17.13;;;;;;;1.18;100.00;99983.94;5036352;28;20497;-86
2021/12/06 06:12:18;;;;;;;45.97;16.92;;;;;;;1.19;100.00;99981.28;5036559;28;20041;-85
2021/12/06 06:14:44;;;;;;;42.03;16.30;;;;;;;1.17;100.00;99982.16;5054840;28;20390;-84
2021/12/06 06:17:12;;;;;;;40.72;16.98;;;;;;;1.17;100.00;99983.03;5037070;28;20025;-86
2021/12/06 06:19:44;;;;;;;41.30;17.33;;;;;;;1.17;100.00;99990.06;5035667;28;20113;-86
2021/12/06 06:22:10;;;;;;;42.20;17.08;;;;;;;1.26;100.00;99997.13;5035992;28;20025;-84
2021/12/06 06:24:36;;;;;;;45.05;16.95;;;;;;;1.22;100.00;100002.34;5035916;28;20023;-85
2021/12/06 06:27:01;;;;;;;46.00;18.17;;;;;;;1.24;100.00;99998.88;5053758;28;20039;-86
2021/12/06 06:29:26;;;;;;;44.33;17.50;;;;;;;1.18;100.00;99992.72;5037405;28;20021;-87
2021/12/06 06:31:52;;;;;;;46.22;19.48;;;;;;;1.16;100.00;100002.31;5036655;28;20020;-86
2021/12/06 06:34:18;;;;;;;41.95;18.65;;;;;;;1.14;100.00;100001.44;5035651;28;20171;-85
2021/12/06 06:36:44;;;;;;;39.95;17.02;;;;;;;1.19;100.00;100007.59;5036996;28;20496;-85
2021/12/06 06:39:10;;;;;;;46.55;19.00;;;;;;;1.15;100.00;100008.47;5037341;28;20120;-85
2021/12/06 06:41:35;;;;;;;48.95;18.80;;;;;;;1.11;100.00;100009.31;5054503;28;20032;-84
2021/12/06 06:44:02;;;;;;;45.55;19.00;;;;;;;1.21;100.00;100005.00;5055425;28;20025;-84
2021/12/06 06:46:27;;;;;;;50.40;18.17;;;;;;;1.13;100.00;100017.22;5056166;28;20021;-85
2021/12/06 06:48:53;;;;;;;48.80;18.27;;;;;;;1.15;100.00;100011.09;5056603;28;20047;-84
2021/12/06 06:51:19;;;;;;;47.65;19.75;;;;;;;1.16;100.00;100007.56;5055589;28;20155;-85
2021/12/06 06:53:44;;;;;;;45.75;17.92;;;;;;;1.16;100.00;100007.56;5037000;28;20075;-84
2021/12/06 07:01:12;;;;;;;48.60;17.58;;;;;;;1.22;100.00;100010.25;5013637;28;20046;-75
2021/12/06 07:03:37;;;;;;;46.00;17.92;;;;;;;1.19;100.00;100007.59;5063524;22;20081;-84
2021/12/06 07:06:03;;;;;;;48.95;17.95;;;;;;;1.24;100.00;100009.38;5020899;28;20041;-82
2021/12/06 07:08:29;;;;;;;48.53;17.30;;;;;;;1.21;100.00;100010.25;5020933;28;20079;-84
2021/12/06 07:10:55;;;;;;;46.08;16.55;;;;;;;1.20;100.00;100009.38;5023504;28;20091;-84
2021/12/06 07:13:22;;;;;;;50.80;17.77;;;;;;;1.19;100.00;100010.22;5024858;28;20029;-87
2021/12/06 07:15:49;;;;;;;47.28;19.40;;;;;;;1.17;100.00;100006.72;5026620;28;20021;-85
2021/12/06 07:18:15;;;;;;;47.90;18.65;;;;;;;1.18;100.00;100013.75;5025695;28;20398;-85
2021/12/06 07:20:40;;;;;;;49.20;17.70;;;;;;;1.21;100.00;100016.38;5024952;28;20029;-83
2021/12/06 07:23:06;;;;;;;49.95;18.23;;;;;;;1.23;100.00;100019.03;5024586;28;20049;-85
2021/12/06 07:25:31;;;;;;;51.88;18.70;;;;;;;1.26;100.00;100020.78;5024623;28;20359;-84
2021/12/06 07:27:59;;;;;;;51.53;19.23;;;;;;;1.24;100.00;100014.66;5025079;28;20098;-84
2021/12/06 07:30:25;;;;;;;48.42;19.38;;;;;;;1.22;100.00;100014.63;5021459;28;20029;-84
2021/12/06 07:32:52;;;;;;;47.70;17.60;;;;;;;1.21;100.00;100012.88;5016876;28;20048;-84
2021/12/06 07:35:18;;;;;;;48.75;19.67;;;;;;;1.19;100.00;100020.75;5018554;28;20105;-84
2021/12/06 07:37:44;;;;;;;50.83;17.65;;;;;;;1.26;100.00;100020.78;5018721;28;20128;-84
2021/12/06 07:40:12;;;;;;;50.75;18.40;;;;;;;1.29;100.00;100026.06;5021371;28;20040;-84
2021/12/06 07:42:38;;;;;;;48.97;18.88;;;;;;;1.28;100.00;100024.28;5022336;28;20021;-85
2021/12/06 07:45:07;;;;;;;45.83;18.88;;;;;;;1.26;100.00;100023.41;5023361;28;20026;-84
2021/12/06 07:47:36;;;;;;;54.05;18.92;;;;;;;1.28;100.00;100021.66;5021456;28;20022;-84
2021/12/06 07:50:03;;;;;;;47.78;18.85;;;;;;;1.24;100.00;100025.16;5022081;28;20022;-84
2021/12/06 07:52:29;;;;;;;50.80;18.13;;;;;;;1.20;100.00;100014.63;5022877;28;20048;-83
2021/12/06 07:54:58;;;;;;;46.80;19.15;;;;;;;1.20;100.00;100013.75;5023690;28;20439;-85
2021/12/06 07:57:23;;;;;;;45.20;17.33;;;;;;;1.18;100.00;100005.84;5024169;28;20030;-85
2021/12/06 07:59:49;;;;;;;46.22;17.30;;;;;;;1.13;100.00;99999.69;5024354;28;20037;-85
2021/12/06 08:02:15;;;;;;;49.63;18.73;;;;;;;1.14;100.00;99998.81;5022260;28;20421;-83
2021/12/06 08:04:40;;;;;;;45.78;17.95;;;;;;;1.18;100.00;99994.44;5022198;28;20474;-84
2021/12/06 08:07:06;;;;;;;48.58;18.55;;;;;;;1.09;100.00;100005.78;5021906;28;20599;-83
2021/12/06 08:09:31;;;;;;;46.05;18.42;;;;;;;1.19;100.00;99997.06;5016762;28;20017;-83
2021/12/06 08:11:58;;;;;;;48.03;19.17;;;;;;;1.20;100.00;100001.47;5017576;28;20022;-80
2021/12/06 08:14:23;;;;;;;47.28;18.77;;;;;;;1.18;100.00;99997.97;5018693;28;20018;-82
2021/12/06 08:16:49;;;;;;;45.20;18.95;;;;;;;1.17;100.00;99993.56;5019453;28;20036;-84
2021/12/06 08:19:14;;;;;;;47.55;19.23;;;;;;;1.14;100.00;99996.19;5021326;28;20026;-85
2021/12/06 08:21:40;;;;;;;52.65;19.58;;;;;;;1.08;100.00;100014.56;5022154;28;20033;-85
2021/12/06 08:24:07;;;;;;;48.90;19.25;;;;;;;1.11;100.00;100004.03;5022753;28;20449;-84
2021/12/06 08:26:36;;;;;;;50.75;19.40;;;;;;;1.11;100.00;100004.03;5024580;28;20042;-85
2021/12/06 08:29:06;;;;;;;53.25;19.50;;;;;;;1.11;100.00;100004.03;5022439;28;20025;-85
2021/12/06 08:31:32;;;;;;;47.28;19.10;;;;;;;1.14;100.00;100011.06;5023141;28;20021;-84
2021/12/06 08:33:57;;;;;;;51.33;18.88;;;;;;;1.11;100.00;100004.03;5022459;28;20018;-85
2021/12/06 08:36:24;;;;;;;47.75;19.17;;;;;;;1.16;100.00;100010.22;5021573;28;20030;-84
2021/12/06 08:38:49;;;;;;;50.58;20.45;;;;;;;1.16;100.00;100006.72;5022930;28;20033;-84
2021/12/06 08:41:19;;;;;;;48.85;19.70;;;;;;;1.28;100.00;100016.41;5023762;28;20018;-85
2021/12/06 08:43:46;;;;;;;48.92;20.70;;;;;;;1.22;100.00;100002.34;5021226;28;20040;-84
2021/12/06 08:46:16;;;;;;;52.67;19.58;;;;;;;1.37;100.00;100021.69;5015529;28;20018;-84
2021/12/06 08:48:42;;;;;;;51.83;19.35;;;;;;;1.25;100.00;100016.38;5017223;28;20018;-85
2021/12/06 08:51:12;;;;;;;50.70;21.90;;;;;;;1.25;100.00;100011.13;5018147;28;20076;-84
2021/12/06 08:53:39;;;;;;;50.35;19.15;;;;;;;1.34;100.00;100016.44;5019109;28;20059;-84
2021/12/06 08:56:05;;;;;;;40.63;17.10;;;;;;;1.33;100.00;100014.66;5020592;28;20044;-84
2021/12/06 08:58:30;;;;;;;39.47;16.27;;;;;;;1.42;100.00;100017.31;5020130;28;20466;-84
2021/12/06 09:00:56;;;;;;;40.47;17.83;;;;;;;1.39;100.00;100013.81;5021951;28;20386;-84
2021/12/06 09:03:21;;;;;;;39.05;16.52;;;;;;;1.43;100.00;100005.94;5019978;28;20026;-84
2021/12/06 09:05:50;;;;;;;41.47;17.52;;;;;;;1.43;100.00;100000.69;5020098;28;20022;-85
2021/12/06 09:08:16;;;;;;;45.22;17.75;;;;;;;1.45;100.00;100008.56;5022632;28;20084;-85
2021/12/06 09:10:43;;;;;;;40.15;17.48;;;;;;;1.37;100.00;100016.44;5021129;28;20397;-85
2021/12/06 09:13:08;;;;;;;39.63;17.48;;;;;;;1.31;100.00;100011.16;5022805;28;20095;-84
2021/12/06 09:15:34;;;;;;;40.97;17.35;;;;;;;1.34;100.00;100011.19;5021328;28;20474;-85
2021/12/06 09:18:00;;;;;;;43.47;17.42;;;;;;;1.47;100.00;100017.34;5024685;28;20128;-86
2021/12/06 09:20:35;;;;;;;41.03;18.52;;;;;;;1.47;100.00;100022.59;5022962;28;20033;-84
2021/12/06 09:23:02;;;;;;;44.85;17.60;;;;;;;1.48;100.00;100028.75;5015089;28;20473;-84
2021/12/06 09:25:29;;;;;;;38.20;16.15;;;;;;;1.51;100.00;100023.50;5018205;28;20033;-84
2021/12/06 09:27:54;;;;;;;37.67;16.65;;;;;;;1.64;100.00;100027.03;5022452;28;20033;-84
2021/12/06 09:30:24;;;;;;;38.72;16.83;;;;;;;1.61;100.00;100025.28;5023596;28;20021;-85
2021/12/06 09:32:49;;;;;;;38.25;16.13;;;;;;;1.61;100.00;100030.56;5022422;28;20033;-84
2021/12/06 09:35:20;;;;;;;41.47;17.10;;;;;;;1.77;100.00;100030.59;5024574;28;20040;-85
2021/12/06 09:37:46;;;;;;;38.40;15.50;;;;;;;1.88;100.00;100034.09;5022830;28;20033;-85
2021/12/06 09:40:15;;;;;;;35.83;16.48;;;;;;;1.89;100.00;100040.25;5022857;28;20056;-85
2021/12/06 09:42:42;;;;;;;36.03;15.13;;;;;;;1.86;100.00;100038.50;5022902;28;20026;-85
2021/12/06 09:45:11;;;;;;;39.08;16.40;;;;;;;1.96;100.00;100042.03;5023135;28;20604;-86
2021/12/06 09:47:36;;;;;;;36.35;16.13;;;;;;;1.98;100.00;100036.78;5022991;28;20076;-83
2021/12/06 09:50:03;;;;;;;38.08;16.33;;;;;;;2.00;100.00;100041.16;5024165;28;20025;-86
2021/12/06 09:52:28;;;;;;;38.88;16.20;;;;;;;1.96;100.00;100036.75;5020738;28;20497;-86
2021/12/06 09:54:55;;;;;;;36.10;16.08;;;;;;;2.01;100.00;100035.00;5020275;28;20022;-85
2021/12/06 09:57:21;;;;;;;34.60;15.23;;;;;;;2.10;100.00;100033.25;5017274;28;20052;-86
2021/12/06 09:59:46;;;;;;;42.63;17.52;;;;;;;2.15;100.00;100022.72;5016182;28;20390;-86
2021/12/06 10:02:16;;;;;;;33.60;14.90;;;;;;;2.20;100.00;100015.69;5015299;28;20034;-86
2021/12/06 10:04:48;;;;;;;36.95;14.82;;;;;;;2.16;100.00;100013.97;5017271;28;20026;-86
2021/12/06 10:07:14;;;;;;;35.42;15.30;;;;;;;2.42;100.00;100002.53;5016902;28;20509;-86
2021/12/06 10:09:41;;;;;;;33.85;15.15;;;;;;;2.29;100.00;99999.03;5017454;28;20025;-86
2021/12/06 10:12:08;;;;;;;36.03;15.70;;;;;;;2.33;100.00;99993.75;5018437;28;20022;-85
2021/12/06 10:14:35;;;;;;;33.95;14.77;;;;;;;2.36;100.00;99977.06;5018101;28;20028;-85
2021/12/06 10:17:01;;;;;;;36.40;15.75;;;;;;;2.36;100.00;99982.34;5017681;28;20405;-86
2021/12/06 10:19:27;;;;;;;36.28;15.77;;;;;;;2.21;100.00;99989.38;5018222;28;20032;-86
2021/12/06 10:21:53;;;;;;;36.80;16.02;;;;;;;2.22;100.00;99980.56;5019452;28;20033;-85
2021/12/06 10:24:30;;;;;;;38.42;16.85;;;;;;;2.22;100.00;99974.41;5022192;28;20028;-86
2021/12/06 10:27:14;;;;;;;38.38;16.52;;;;;;;2.36;100.00;99970.91;5019930;28;20046;-84
2021/12/06 10:29:46;;;;;;;35.95;15.45;;;;;;;2.40;100.00;99970.91;5020825;28;20033;-84
2021/12/06 10:32:18;;;;;;;40.22;16.85;;;;;;;2.31;100.00;99974.44;5020352;28;20038;-84
2021/12/06 10:34:51;;;;;;;37.45;16.60;;;;;;;2.44;100.00;99979.69;5015767;28;20061;-85
2021/12/06 10:37:51;;;;;;;37.35;16.40;;;;;;;2.48;100.00;99978.78;5018792;28;20037;-84
2021/12/06 10:40:29;;;;;;;38.55;15.27;;;;;;;2.55;100.00;99988.44;5019370;28;20553;-84
2021/12/06 10:42:57;;;;;;;37.53;15.98;;;;;;;2.53;100.00;99979.66;5021457;28;20088;-85
2021/12/06 10:45:26;;;;;;;36.25;15.30;;;;;;;2.61;100.00;99976.13;5023044;28;20355;-85
2021/12/06 10:48:21;;;;;;;36.53;16.38;;;;;;;2.61;100.00;99970.84;5023656;28;20026;-84
2021/12/06 10:50:54;;;;;;;36.38;15.57;;;;;;;2.62;100.00;99968.22;5024803;28;20033;-84
2021/12/06 10:53:23;;;;;;;34.35;14.85;;;;;;;2.61;100.00;99961.19;5023067;28;20429;-84
2021/12/06 10:55:53;;;;;;;36.45;15.38;;;;;;;2.66;100.00;99969.97;5023917;28;20028;-84
2021/12/06 10:58:23;;;;;;;38.05;15.68;;;;;;;2.72;100.00;99965.56;5024797;28;20057;-83
2021/12/06 11:00:52;;;;;;;35.83;15.30;;;;;;;2.59;100.00;99972.63;5027626;28;20390;-85
2021/12/06 11:03:25;;;;;;;34.63;14.63;;;;;;;2.70;100.00;99965.59;5026008;28;20030;-84
2021/12/06 11:05:58;;;;;;;31.90;15.52;;;;;;;2.67;100.00;99970.84;5025665;28;20026;-84
2021/12/06 11:08:24;;;;;;;35.13;14.95;;;;;;;2.69;100.00;99969.09;5025526;28;20493;-84
2021/12/06 11:10:57;;;;;;;35.08;15.73;;;;;;;2.60;100.00;99964.72;5019211;28;20030;-84
2021/12/06 11:13:29;;;;;;;32.50;15.27;;;;;;;2.58;100.00;99962.97;5018845;28;20045;-82
2021/12/06 11:16:05;;;;;;;32.28;15.55;;;;;;;2.65;100.00;99962.97;5018205;28;20018;-81
2021/12/06 11:18:35;;;;;;;34.97;15.70;;;;;;;2.75;100.00;99963.81;5018703;28;20406;-85
2021/12/06 11:21:02;;;;;;;36.15;15.45;;;;;;;2.73;100.00;99960.28;5022043;28;20033;-84
2021/12/06 11:23:27;;;;;;;32.60;16.20;;;;;;;2.78;100.00;99963.78;5025693;28;20097;-84
2021/12/06 11:25:58;;;;;;;36.47;15.95;;;;;;;2.66;100.00;99956.78;5029473;28;20029;-84
2021/12/06 11:28:27;;;;;;;37.10;16.13;;;;;;;2.75;100.00;99968.19;5025688;28;20026;-86
2021/12/06 11:31:01;;;;;;;36.03;15.60;;;;;;;2.87;100.00;99965.53;5028705;28;20025;-83
2021/12/06 11:33:32;;;;;;;35.17;15.43;;;;;;;2.87;100.00;99962.00;5019040;28;20037;-86
2021/12/06 11:36:00;;;;;;;32.28;15.05;;;;;;;2.83;100.00;99949.72;5017201;28;20486;-87